createdAt,value
2023-03-16T00:00:24.204Z,67.30
2023-03-16T00:05:47.281Z,54.70
2023-03-16T00:15:56.876Z,52.40
2023-03-16T00:21:03.866Z,42.70
2023-03-16T00:26:08.102Z,39.40
2023-03-16T00:31:11.614Z,36.10
2023-03-16T00:41:15.977Z,40.20
2023-03-16T00:46:18.296Z,40.60
2023-03-16T00:51:22.492Z,37.30
2023-03-16T00:56:24.168Z,37.30
2023-03-16T01:01:27.015Z,34.50
2023-03-16T01:06:28.741Z,34.80
2023-03-16T01:11:33.345Z,38.30
2023-03-16T01:16:35.808Z,29.40
2023-03-16T01:21:38.776Z,32.80
2023-03-16T01:26:40.757Z,33.40
2023-03-16T01:31:42.587Z,31.10
2023-03-16T01:36:47.171Z,28.50
2023-03-16T01:41:49.353Z,23.90
2023-03-16T01:46:50.967Z,23.90
2023-03-16T01:51:58.447Z,20.50
2023-03-16T01:57:10.041Z,22.20
2023-03-16T02:02:14.898Z,19.20
2023-03-16T02:07:18.813Z,16.90
2023-03-16T02:12:21.513Z,24.10
2023-03-16T02:17:28.001Z,20.60
2023-03-16T02:22:35.809Z,16.80
2023-03-16T02:27:46.899Z,19.20
2023-03-16T02:32:52.603Z,17.00
2023-03-16T02:37:54.444Z,20.20
2023-03-16T02:43:04.822Z,17.90
2023-03-16T02:48:14.685Z,20.50
2023-03-16T02:53:16.874Z,23.60
2023-03-16T02:58:19.154Z,25.00
2023-03-16T03:03:21.286Z,21.20
2023-03-16T03:08:23.109Z,27.90
2023-03-16T03:13:24.887Z,21.40
2023-03-16T03:18:27.537Z,21.90
2023-03-16T03:23:29.253Z,22.20
2023-03-16T03:28:33.803Z,18.90
2023-03-16T03:33:35.774Z,20.60
2023-03-16T03:38:38.374Z,18.90
2023-03-16T03:43:40.963Z,21.50
2023-03-16T03:48:42.851Z,25.20
2023-03-16T03:53:44.516Z,29.30
2023-03-16T03:58:47.001Z,25.70
2023-03-16T04:03:48.672Z,33.90
2023-03-16T04:08:50.763Z,35.40
2023-03-16T04:13:55.190Z,36.90
2023-03-16T04:18:57.987Z,35.70
2023-03-16T04:24:03.561Z,36.20
2023-03-16T04:29:05.221Z,35.00
2023-03-16T04:34:07.001Z,33.90
2023-03-16T04:39:10.104Z,37.60
2023-03-16T04:49:13.449Z,32.10
2023-03-16T04:54:15.339Z,29.80
2023-03-16T04:59:17.815Z,38.30
2023-03-16T05:04:21.537Z,35.50
2023-03-16T05:09:23.320Z,37.40
2023-03-16T05:14:25.708Z,43.50
2023-03-16T05:19:27.889Z,43.50
2023-03-16T05:24:29.864Z,56.10
2023-03-16T05:29:31.971Z,58.80
2023-03-16T05:34:33.618Z,57.00
2023-03-16T05:39:35.572Z,59.40
2023-03-16T05:44:37.271Z,70.50
2023-03-16T05:49:39.085Z,64.20
2023-03-16T05:54:42.561Z,56.70
2023-03-16T05:59:44.539Z,60.20
2023-03-16T06:04:46.414Z,34.00
2023-03-16T06:09:49.074Z,16.70
2023-03-16T06:14:51.032Z,18.10
2023-03-16T06:19:53.787Z,15.50
2023-03-16T06:24:55.458Z,11.80
2023-03-16T06:29:57.138Z,10.80
2023-03-16T06:35:01.674Z,10.10
2023-03-16T06:40:05.698Z,10.10
2023-03-16T06:45:09.076Z,11.10
2023-03-16T06:50:11.567Z,9.60
2023-03-16T06:55:14.093Z,9.90
2023-03-16T07:00:16.755Z,7.80
2023-03-16T07:05:19.086Z,10.50
2023-03-16T07:10:21.875Z,7.70
2023-03-16T07:15:26.203Z,9.60
2023-03-16T07:20:31.835Z,10.60
2023-03-16T07:25:38.869Z,8.80
2023-03-16T07:30:56.545Z,9.90
2023-03-16T07:36:10.046Z,9.40
2023-03-16T07:41:13.688Z,8.70
2023-03-16T07:46:17.053Z,7.20
2023-03-16T07:51:19.791Z,11.10
2023-03-16T07:56:22.179Z,9.10
2023-03-16T08:01:25.796Z,11.50
2023-03-16T08:06:38.429Z,11.60
2023-03-16T08:11:41.229Z,13.00
2023-03-16T08:16:48.233Z,13.90
2023-03-16T08:22:01.462Z,11.50
2023-03-16T08:27:13.078Z,11.80
2023-03-16T08:32:18.029Z,14.10
2023-03-16T08:48:15.365Z,15.60
2023-03-16T08:53:18.678Z,14.70
2023-03-16T08:58:25.564Z,13.40
2023-03-16T09:03:30.337Z,17.10
2023-03-16T09:08:34.054Z,13.00
2023-03-16T09:13:38.260Z,11.00
2023-03-16T09:18:41.983Z,13.30
2023-03-16T09:23:46.121Z,14.30
2023-03-16T09:28:49.117Z,14.50
2023-03-16T09:33:53.663Z,13.20
2023-03-16T09:38:57.074Z,25.80
2023-03-16T09:44:17.584Z,19.50
2023-03-16T09:49:25.605Z,22.60
2023-03-16T09:54:45.710Z,17.50
2023-03-16T09:59:52.164Z,19.30
2023-03-16T10:05:10.231Z,14.00
2023-03-16T10:10:25.536Z,17.50
2023-03-16T10:15:33.115Z,18.00
2023-03-16T10:20:37.644Z,22.00
2023-03-16T10:25:49.328Z,19.60
2023-03-16T10:30:55.148Z,17.30
2023-03-16T10:36:24.401Z,20.70
2023-03-16T10:41:31.865Z,17.30
2023-03-16T10:46:50.071Z,16.70
2023-03-16T10:52:02.571Z,24.00
2023-03-16T10:57:36.003Z,19.30
2023-03-16T11:02:40.187Z,12.10
2023-03-16T11:07:51.223Z,15.00
2023-03-16T11:12:55.359Z,11.40
2023-03-16T11:17:58.863Z,12.30
2023-03-16T11:23:16.115Z,14.40
2023-03-16T11:28:34.978Z,12.40
2023-03-16T11:33:38.296Z,11.20
2023-03-16T11:39:07.413Z,10.30
2023-03-16T11:44:16.349Z,13.80
2023-03-16T11:49:27.748Z,13.10
2023-03-16T11:54:49.391Z,12.10
2023-03-16T12:00:02.159Z,11.90
2023-03-16T12:05:23.766Z,9.10
2023-03-16T12:10:38.428Z,9.90
2023-03-16T12:15:52.234Z,8.60
2023-03-16T12:21:05.627Z,13.10
2023-03-16T12:31:23.647Z,10.70
2023-03-16T12:37:05.117Z,8.50
2023-03-16T12:42:40.068Z,7.60
2023-03-16T12:48:03.845Z,12.40
2023-03-16T12:53:08.194Z,7.20
2023-03-16T12:58:17.960Z,10.50
2023-03-16T13:03:23.658Z,9.20
2023-03-16T13:08:28.568Z,9.50
2023-03-16T13:13:32.709Z,9.60
2023-03-16T13:18:44.825Z,10.90
2023-03-16T13:24:00.909Z,8.60
2023-03-16T13:29:23.391Z,7.10
2023-03-16T13:34:31.020Z,8.10
2023-03-16T13:39:33.210Z,9.00
2023-03-16T13:44:41.020Z,8.80
2023-03-16T13:49:54.553Z,9.80
2023-03-16T13:55:00.728Z,8.60
2023-03-16T14:00:20.732Z,8.10
2023-03-16T14:05:29.042Z,11.50
2023-03-16T14:10:36.383Z,9.90
2023-03-16T14:15:38.498Z,9.70
2023-03-16T14:20:41.704Z,10.80
2023-03-16T14:25:44.754Z,16.20
2023-03-16T14:30:52.329Z,8.70
2023-03-16T14:35:56.484Z,8.80
2023-03-16T14:41:11.387Z,7.20
2023-03-16T14:46:30.293Z,8.30
2023-03-16T14:51:39.963Z,7.40
2023-03-16T14:56:42.521Z,7.80
2023-03-16T15:01:46.274Z,6.40
2023-03-16T15:06:49.035Z,7.10
2023-03-16T15:11:55.007Z,6.20
2023-03-16T15:16:57.207Z,4.20
2023-03-16T15:22:01.319Z,3.80
2023-03-16T15:27:04.023Z,4.30
2023-03-16T15:32:12.321Z,6.60
2023-03-16T15:37:16.905Z,5.00
2023-03-16T15:42:19.880Z,7.90
2023-03-16T15:47:23.256Z,6.10
2023-03-16T15:52:32.764Z,431.50
2023-03-16T15:57:36.194Z,1999.90
2023-03-16T16:02:38.346Z,1785.40
2023-03-16T16:07:40.318Z,953.40
2023-03-16T16:12:51.133Z,437.00
2023-03-16T16:18:19.093Z,102.20
2023-03-16T16:28:27.665Z,23.90
2023-03-16T16:33:32.919Z,55.40
2023-03-16T16:38:35.097Z,20.10
2023-03-16T16:43:47.600Z,56.10
2023-03-16T16:48:51.780Z,29.00
2023-03-16T16:53:55.663Z,84.90
2023-03-16T16:59:02.674Z,26.60
2023-03-16T17:04:13.071Z,22.50
2023-03-16T17:09:15.440Z,25.80
2023-03-16T17:14:21.032Z,20.30
2023-03-16T17:19:28.413Z,52.60
2023-03-16T17:24:31.026Z,40.10
2023-03-16T17:29:36.404Z,36.20
2023-03-16T17:34:38.556Z,41.50
2023-03-16T17:39:52.358Z,52.80
2023-03-16T17:44:55.007Z,76.20
2023-03-16T17:49:57.371Z,84.70
2023-03-16T17:54:59.264Z,102.50
2023-03-16T18:00:05.919Z,76.60
2023-03-16T18:05:34.875Z,79.80
2023-03-16T18:10:36.955Z,70.80
2023-03-16T18:15:39.850Z,67.10
2023-03-16T18:25:45.769Z,35.30
2023-03-16T18:30:53.947Z,19.40
2023-03-16T18:36:00.906Z,28.80
2023-03-16T18:41:31.901Z,20.40
2023-03-16T18:46:37.547Z,33.50
2023-03-16T18:51:41.842Z,39.00
2023-03-16T18:56:44.533Z,34.30
2023-03-16T19:01:48.330Z,40.90
2023-03-16T19:06:53.434Z,55.60
2023-03-16T19:11:56.299Z,44.10
2023-03-16T19:16:58.894Z,28.70
2023-03-16T19:22:14.200Z,60.20
2023-03-16T19:27:35.209Z,75.20
2023-03-16T19:32:38.342Z,28.80
2023-03-16T19:42:46.473Z,25.80
2023-03-16T19:47:48.569Z,22.30
2023-03-16T19:52:51.062Z,41.60
2023-03-16T19:58:01.824Z,21.00
2023-03-16T20:03:04.436Z,19.90
2023-03-16T20:08:21.157Z,31.40
2023-03-16T20:13:24.386Z,59.30
2023-03-16T20:23:32.157Z,49.60
2023-03-16T20:28:36.186Z,62.60
2023-03-16T20:33:38.229Z,44.20
2023-03-16T20:38:40.503Z,54.20
2023-03-16T20:43:43.299Z,83.80
2023-03-16T20:48:47.160Z,166.70
2023-03-16T20:53:50.532Z,58.10
2023-03-16T20:58:55.773Z,31.10
2023-03-16T21:04:00.660Z,47.40
2023-03-16T21:09:03.046Z,98.60
2023-03-16T21:14:07.768Z,42.00
2023-03-16T21:19:18.452Z,55.30
2023-03-16T21:24:20.841Z,106.50
2023-03-16T21:29:23.461Z,72.70
2023-03-16T21:34:30.638Z,38.80
2023-03-16T21:39:32.837Z,34.20
2023-03-16T21:44:36.335Z,31.00
2023-03-16T21:49:39.201Z,37.20
2023-03-16T21:54:41.930Z,50.80
2023-03-16T21:59:44.421Z,69.40
2023-03-16T22:04:47.527Z,49.00
2023-03-16T22:09:49.731Z,48.20
2023-03-16T22:14:51.895Z,49.30
2023-03-16T22:19:53.668Z,51.10
2023-03-16T22:24:55.442Z,59.50
2023-03-16T22:29:57.322Z,75.80
2023-03-16T22:34:59.712Z,103.30
2023-03-16T22:40:02.929Z,150.30
2023-03-16T22:50:25.272Z,231.70
2023-03-16T22:55:32.772Z,160.60
2023-03-16T23:00:35.866Z,120.40
2023-03-16T23:05:38.116Z,97.70
2023-03-16T23:10:40.220Z,70.00
2023-03-16T23:15:44.855Z,55.30
2023-03-16T23:20:48.257Z,54.10
2023-03-16T23:25:50.541Z,42.00
2023-03-16T23:30:52.829Z,52.30
2023-03-16T23:35:55.128Z,33.90
2023-03-16T23:40:57.501Z,37.40
2023-03-16T23:46:00.061Z,32.10
2023-03-16T23:51:03.099Z,37.70
2023-03-16T23:56:10.402Z,36.70
